Terminal Aerodrome Forecast
Issued by NWS

Home | Current Version | Previous Version | Text Only | Print | Product List | Glossary On
Versions: 1 2 3 4 5 6 7 8 9 10 11 12 13 14
415
FTUS46 KMTR 141720
TAFOAK
TAF
KOAK 141720Z 1418/1524 28009KT P6SM FEW250
     FM142100 28012G18KT P6SM SKC
     FM150300 31008KT P6SM SKC
     FM150600 02003KT P6SM SKC
     FM151800 35007KT P6SM SKC=

USA.gov is the U.S. government's official web portal to all federal, state and local government web resources and services.